AirNav   Everest Fuels
 
 1010 users online  

0VI1 Brooklyn Airport
Manquin, Virginia, USA

GOING TO MANQUIN?


FAA INFORMATION EFFECTIVE 05 NOVEMBER 2020

Location

FAA Identifier: 0VI1
Lat/Long: 37-41-20.0000N 077-06-05.0000W
37-41.333333N 077-06.083333W
37.6888889,-77.1013889
(estimated)
Elevation: 145 ft. / 44 m (estimated)
Variation: 10W (1995)
From city: 3 miles E of MANQUIN, VA
Time zone: UTC -5 (UTC -4 during Daylight Saving Time)
Zip code: 23086

Airport Operations

Airport use: Private use. Permission required prior to landing
Activation date: 02/1999
Control tower: no
ARTCC: WASHINGTON CENTER
FSS: LEESBURG FLIGHT SERVICE STATION
Attendance: SR-SS
Wind indicator: yes
Segmented circle: no

Airport Communications

WX AWOS-3 at W96 (11 nm S): 119.875 (804-932-8863)
WX AWOS-3 at XSA (14 nm NE): 125.775 (804-445-8724)
WX ASOS at RIC (15 nm SW): PHONE 804-236-1091
WX ASOS at OFP (16 nm W): 119.025 (804-752-2902)
WX AWOS-3 at FYJ (19 nm SE): 132.825 (804-785-2307)

Nearby radio navigation aids

VOR radial/distance  VOR name  Freq  Var
RICr052/15.3RICHMOND VORTAC114.1009W
HPWr008/21.6HOPEWELL VORTAC112.0006W
HCMr315/23.5HARCUM VORTAC108.8007W
FAKr080/35.9FLAT ROCK VORTAC113.3006W

 
NDB name  Hdg/Dist  Freq  Var  ID
SHANNON165/38.423710WEZF . --.. ..-.

Airport Services

Runway Information

Runway 5/23

Dimensions: 3000 x 60 ft. / 914 x 18 m
Surface: turf
RUNWAY 5  RUNWAY 23
Traffic pattern: rightleft
Obstructions: 50 ft. tree, 800 ft. from runway10 ft. trees, 50 ft. from runway

Airport Ownership and Management from official FAA records

Ownership: Privately-owned
Owner: BROOKLYN AIR PARK, LLC
121 PINEPOINT RD
WILLIAMSBURG, VA 23185
Phone 757-880-4595
Manager: JOHN E ROUZIE JR
121 PINEPOINT RD
WILLIAMSBURG, VA 23185
Phone 757-220-1151

Additional Remarks

FOR CD CTC POTOMAC APCH AT 866-640-4124.

Instrument Procedures

There are no published instrument procedures at 0VI1.

Some nearby airports with instrument procedures:

W96 - New Kent County Airport (11 nm S)
KXSA - Tappahannock-Essex County Airport (14 nm NE)
KRIC - Richmond International Airport (15 nm SW)
KOFP - Hanover County Municipal Airport (16 nm W)
KFYJ - Middle Peninsula Regional Airport (19 nm SE)
 
Loc | Ops | Rwys | IFR | FBO | Links
Com | Nav | Svcs | Stats | Notes
Area around 0VI1 (Brooklyn Airport)
 
Road maps at: MapQuest Bing Google
 
Aerial photo
WARNING: Photo may not be current or correct
Aerial photo of 0VI1 (Brooklyn Airport)
Photo taken 03-May-2018
looking south.

Do you have a better or more recent aerial photo of Brooklyn Airport that you would like to share? If so, please send us your photo.

 
Sectional chart

 
Airport distance calculator
Flying to Brooklyn Airport? Find the distance to fly.

From to 0VI1

Sunrise and sunset
Times for 29-Nov-2020
 Local
(UTC-5)
 Zulu
(UTC)
Morning civil twilight06:3611:36
Sunrise07:0512:05
Sunset16:4921:49
Evening civil twilight17:1822:18

Current date and time
Zulu (UTC)  30-Nov-2020 00:03:46
Local (UTC-5)  29-Nov-2020 19:03:46
 
METAR
KW96 
11nm S 
292355Z AUTO 09003KT 10SM CLR 09/07 A3009 RMK AO1 T00910071 10161 20091
KXSA 
14nm NE 
292355Z AUTO 12003KT 10SM CLR 10/10 A3010 RMK AO2 T01000097 10157 20082
KRIC 
15nm SW 
292354Z 00000KT 10SM OVC210 10/07 A3008 RMK AO2 SLP193 T01000072 10161 20100 58008
KOFP 
16nm W 
292354Z AUTO 00000KT 10SM CLR 09/06 A3010 RMK AO2 SLP192 T00890061 10161 20089 58006
TAF
KRIC 
15nm SW 
291722Z 2918/3018 18006KT P6SM FEW050 SCT250 FM300200 12005KT P6SM VCSH OVC050 FM300600 11007KT 6SM -RA BR OVC015 FM300800 11010KT 4SM -RA BR OVC008 FM301400 18014G21KT 4SM -RA BR OVC010 FM301700 21018G29KT 4SM -RA BR OVC025
NOTAMs
Click for the latest NOTAMs
NOTAMs are issued by the DoD/FAA and will open in a separate window not controlled by AirNav.

 

 
 

Would you like to see your business listed on this page?

 If your business provides an interesting product or service to pilots, flight crews, aircraft, or users of the Brooklyn Airport, you should consider listing it here.  To start the listing process, click on the button below
 
Add a business
 

Other Pages about Brooklyn Airport

Update a link
 
Copyright © AirNav, LLC. All rights reserved. Privacy Policy  Contact